Chippewa Falls, WI

4:34 PM CDT on August 23, 2016 (GMT -0500)
Lake Wissota | | Change Station

Elev 925 ft 44.98 °N, 91.34 °W | Updated 1 second ago

Partly Cloudy
Partly Cloudy
80.2 °F
Feels Like 83 °F
N
11.5
Wind Variable Wind from South
Gusts 11.5 mph

Today
High -- | Low -- °F
--% Chance of Precip.
Yesterday
High -- | Low -- °F
Precip. -- in
Pressure 29.95 in
Visibility 10.0 miles
Clouds Few 3800 ft
Heat Index 83 °F
Dew Point 67 °F
Humidity 64%
Rainfall 0.00 in
Snow Depth Not available.
6:17 AM 7:57 PM
Waning Gibbous, 64% visible
METAR KEAU 232056Z 18015G21KT 10SM FEW038 28/18 A2996 RMK AO2 SLP140 T02780183 56009
Pressure 29.95 in
Visibility 10.0 miles
Clouds Few 3800 ft
Heat Index 83 °F
Dew Point 67 °F
Humidity 64%
Rainfall 0.00 in
Snow Depth Not available.
6:17 AM 7:57 PM
Waning Gibbous, 64% visible
METAR KEAU 232056Z 18015G21KT 10SM FEW038 28/18 A2996 RMK AO2 SLP140 T02780183 56009

10-Day Weather Forecast

Almanac

Astronomy

Aug. 23, 2016 Rise Set
Actual Time
Civil Twilight
Nautical Twilight
Astronomical Twilight
Moon
Length of Visible Light
Length of Day
Tomorrow will be .
, % of the Moon is Illuminated

Today's Extremes

State Highs State Lows

Community

WunderPhotos

Upload Photos

1,934,470 photos uploaded!

WunderBlog® & News

Nearby

Air Quality

  Air Quality AQ Index Pollutant
Not available.

Snow Depth

Station Depth Elevation

Earthquake Activity

City Distance Mag. Time & Date
Minimum magnitude displayed is 2.5.

Coastal Water Temperatures

Place Temperature

Stations

Nearby Weather Stations

Station Location Temp. Windchill Dew Point Humidity Wind Precip. Elev Updated Type
                   

Watches & Warnings

There are currently no watches in effect.